createdAt,value
2023-02-16T00:00:29.895Z,10.20
2023-02-16T00:02:57.103Z,10.63
2023-02-16T00:05:29.815Z,10.35
2023-02-16T00:07:58.432Z,11.73
2023-02-16T00:10:28.681Z,10.98
2023-02-16T00:13:14.029Z,10.98
2023-02-16T00:15:41.531Z,11.65
2023-02-16T00:18:21.729Z,10.90
2023-02-16T00:20:49.161Z,11.07
2023-02-16T00:23:16.544Z,10.65
2023-02-16T00:25:43.373Z,10.52
2023-02-16T00:28:17.763Z,10.80
2023-02-16T00:30:45.401Z,10.40
2023-02-16T00:33:19.051Z,10.13
2023-02-16T00:35:46.037Z,10.43
2023-02-16T00:38:13.470Z,10.48
2023-02-16T00:40:41.768Z,11.57
2023-02-16T00:43:25.074Z,10.75
2023-02-16T00:45:52.283Z,10.68
2023-02-16T00:48:19.467Z,10.45
2023-02-16T00:50:46.524Z,11.07
2023-02-16T00:53:13.728Z,10.90
2023-02-16T00:55:42.888Z,10.35
2023-02-16T00:58:24.280Z,10.57
2023-02-16T01:00:54.157Z,10.98
2023-02-16T01:03:27.666Z,10.68
2023-02-16T01:06:14.581Z,10.60
2023-02-16T01:09:00.890Z,10.10
2023-02-16T01:11:28.330Z,9.48
2023-02-16T01:13:56.830Z,10.57
2023-02-16T01:16:37.457Z,9.35
2023-02-16T01:19:05.158Z,10.18
2023-02-16T01:21:31.961Z,10.77
2023-02-16T01:24:01.532Z,10.30
2023-02-16T01:26:29.485Z,10.75
2023-02-16T01:28:56.232Z,10.90
2023-02-16T01:31:23.054Z,10.82
2023-02-16T01:33:50.740Z,10.20
2023-02-16T01:36:26.341Z,9.82
2023-02-16T01:38:53.098Z,11.07
2023-02-16T01:41:56.466Z,10.27
2023-02-16T01:44:36.162Z,9.77
2023-02-16T01:47:26.349Z,10.45
2023-02-16T01:49:53.139Z,10.43
2023-02-16T01:52:28.562Z,10.13
2023-02-16T01:55:10.202Z,9.77
2023-02-16T01:57:43.288Z,9.88
2023-02-16T02:00:10.474Z,9.25
2023-02-16T02:02:52.478Z,9.52
2023-02-16T02:05:36.433Z,9.55
2023-02-16T02:08:24.876Z,9.77
2023-02-16T02:11:04.639Z,10.25
2023-02-16T02:13:49.816Z,9.57
2023-02-16T02:16:21.378Z,9.85
2023-02-16T02:18:48.863Z,10.27
2023-02-16T02:22:12.514Z,8.95
2023-02-16T02:25:10.019Z,9.10
2023-02-16T02:28:01.722Z,9.23
2023-02-16T02:31:10.134Z,8.73
2023-02-16T02:33:59.662Z,8.85
2023-02-16T02:36:41.660Z,9.05
2023-02-16T02:39:19.930Z,8.52
2023-02-16T02:42:05.465Z,8.40
2023-02-16T02:44:50.090Z,8.85
2023-02-16T02:47:17.164Z,8.90
2023-02-16T02:49:54.825Z,9.02
2023-02-16T02:52:22.347Z,8.80
2023-02-16T02:55:13.390Z,9.73
2023-02-16T02:58:01.191Z,8.80
2023-02-16T03:00:43.945Z,9.13
2023-02-16T03:03:33.783Z,8.07
2023-02-16T03:06:05.858Z,8.73
2023-02-16T03:08:35.842Z,7.93
2023-02-16T03:11:31.836Z,7.57
2023-02-16T03:14:06.787Z,7.95
2023-02-16T03:16:45.079Z,8.00
2023-02-16T03:19:34.036Z,8.32
2023-02-16T03:22:20.794Z,8.00
2023-02-16T03:25:06.216Z,7.40
2023-02-16T03:27:56.455Z,8.40
2023-02-16T03:30:25.700Z,7.60
2023-02-16T03:32:53.187Z,7.85
2023-02-16T03:35:20.839Z,8.07
2023-02-16T03:37:47.998Z,7.35
2023-02-16T03:40:29.441Z,7.95
2023-02-16T03:42:59.044Z,7.78
2023-02-16T03:45:26.324Z,7.55
2023-02-16T03:47:53.640Z,7.15
2023-02-16T03:50:20.741Z,7.43
2023-02-16T03:52:48.060Z,7.57
2023-02-16T03:55:15.393Z,7.22
2023-02-16T03:57:42.101Z,7.20
2023-02-16T04:00:09.417Z,7.20
2023-02-16T04:02:43.521Z,7.90
2023-02-16T04:05:10.272Z,8.00
2023-02-16T04:07:36.979Z,7.70
2023-02-16T04:10:03.878Z,7.35
2023-02-16T04:12:36.626Z,7.32
2023-02-16T04:15:06.468Z,7.97
2023-02-16T04:17:33.189Z,7.72
2023-02-16T04:19:59.993Z,8.23
2023-02-16T04:22:26.846Z,8.05
2023-02-16T04:24:53.604Z,8.02
2023-02-16T04:27:20.358Z,7.43
2023-02-16T04:29:47.184Z,7.75
2023-02-16T04:32:13.969Z,7.28
2023-02-16T04:34:40.812Z,7.28
2023-02-16T04:37:07.589Z,7.93
2023-02-16T04:39:35.708Z,7.55
2023-02-16T04:42:02.897Z,7.63
2023-02-16T04:44:29.667Z,8.23
2023-02-16T04:46:56.402Z,7.43
2023-02-16T04:49:23.208Z,7.95
2023-02-16T04:51:49.986Z,7.65
2023-02-16T04:54:16.863Z,7.53
2023-02-16T04:56:45.341Z,7.35
2023-02-16T04:59:12.374Z,8.43
2023-02-16T05:01:39.231Z,8.73
2023-02-16T05:04:06.558Z,8.48
2023-02-16T05:06:33.334Z,8.05
2023-02-16T05:09:00.130Z,7.47
2023-02-16T05:11:45.493Z,8.70
2023-02-16T05:14:39.126Z,7.47
2023-02-16T05:17:05.832Z,7.38
2023-02-16T05:19:32.621Z,8.07
2023-02-16T05:21:59.514Z,8.40
2023-02-16T05:24:28.438Z,8.05
2023-02-16T05:26:55.682Z,7.20
2023-02-16T05:29:22.540Z,7.97
2023-02-16T05:31:49.400Z,7.95
2023-02-16T05:34:16.203Z,8.13
2023-02-16T05:36:42.921Z,7.80
2023-02-16T05:39:09.686Z,7.70
2023-02-16T05:41:36.506Z,8.35
2023-02-16T05:44:04.281Z,8.65
2023-02-16T05:46:34.062Z,8.40
2023-02-16T05:49:02.086Z,8.57
2023-02-16T05:51:29.185Z,8.48
2023-02-16T05:53:56.257Z,9.23
2023-02-16T05:56:23.661Z,8.68
2023-02-16T05:58:50.793Z,10.18
2023-02-16T06:01:17.903Z,9.27
2023-02-16T06:03:44.894Z,11.15
2023-02-16T06:06:12.378Z,10.93
2023-02-16T06:08:39.339Z,11.85
2023-02-16T06:11:07.098Z,11.05
2023-02-16T06:13:34.400Z,11.13
2023-02-16T06:16:01.401Z,10.23
2023-02-16T06:18:28.165Z,11.13
2023-02-16T06:20:57.068Z,10.50
2023-02-16T06:23:24.002Z,10.05
2023-02-16T06:25:53.931Z,9.70
2023-02-16T06:28:20.672Z,11.10
2023-02-16T06:30:47.393Z,10.57
2023-02-16T06:33:14.136Z,9.05
2023-02-16T06:35:40.882Z,9.80
2023-02-16T06:38:07.614Z,10.35
2023-02-16T06:40:34.302Z,8.98
2023-02-16T06:43:01.016Z,9.52
2023-02-16T06:45:27.880Z,11.40
2023-02-16T06:47:54.588Z,9.68
2023-02-16T06:50:21.389Z,10.10
2023-02-16T06:52:48.083Z,9.02
2023-02-16T06:55:14.907Z,9.32
2023-02-16T06:57:41.606Z,8.85
2023-02-16T07:00:09.185Z,10.45
2023-02-16T07:02:35.971Z,10.38
2023-02-16T07:05:03.296Z,9.63
2023-02-16T07:07:31.178Z,9.18
2023-02-16T07:09:58.255Z,10.75
2023-02-16T07:12:25.011Z,9.32
2023-02-16T07:14:51.768Z,9.20
2023-02-16T07:17:18.482Z,9.63
2023-02-16T07:19:45.255Z,9.88
2023-02-16T07:22:12.286Z,9.48
2023-02-16T07:24:39.002Z,11.23
2023-02-16T07:27:06.076Z,10.60
2023-02-16T07:29:32.800Z,11.18
2023-02-16T07:31:59.624Z,11.10
2023-02-16T07:34:26.563Z,10.18
2023-02-16T07:36:53.304Z,9.75
2023-02-16T07:39:20.031Z,10.20
2023-02-16T07:41:46.839Z,10.00
2023-02-16T07:44:17.863Z,9.18
2023-02-16T07:46:44.580Z,10.25
2023-02-16T07:49:11.304Z,9.77
2023-02-16T07:51:38.012Z,10.52
2023-02-16T07:54:04.772Z,11.48
2023-02-16T07:56:35.028Z,10.27
2023-02-16T07:59:03.167Z,11.82
2023-02-16T08:01:30.412Z,10.80
2023-02-16T08:03:57.382Z,12.00
2023-02-16T08:06:24.567Z,10.98
2023-02-16T08:08:51.337Z,12.52
2023-02-16T08:11:23.952Z,12.45
2023-02-16T08:13:51.590Z,11.88
2023-02-16T08:16:24.083Z,11.27
2023-02-16T08:18:52.326Z,12.15
2023-02-16T08:21:22.020Z,12.05
2023-02-16T08:23:57.125Z,12.05
2023-02-16T08:26:27.298Z,10.93
2023-02-16T08:28:56.444Z,11.43
2023-02-16T08:31:25.560Z,11.52
2023-02-16T08:33:54.967Z,11.80
2023-02-16T08:36:32.757Z,10.88
2023-02-16T08:39:00.929Z,10.48
2023-02-16T08:41:36.849Z,9.85
2023-02-16T08:44:06.271Z,10.18
2023-02-16T08:46:34.166Z,9.20
2023-02-16T08:49:01.436Z,9.75
2023-02-16T08:51:30.511Z,9.73
2023-02-16T08:54:01.526Z,9.88
2023-02-16T08:56:32.912Z,9.05
2023-02-16T08:59:00.417Z,9.88
2023-02-16T09:01:27.694Z,9.07
2023-02-16T09:03:54.905Z,9.13
2023-02-16T09:06:22.650Z,8.82
2023-02-16T09:08:54.467Z,8.52
2023-02-16T09:11:22.312Z,8.45
2023-02-16T09:13:49.666Z,7.90
2023-02-16T09:16:18.995Z,8.10
2023-02-16T09:18:47.142Z,8.18
2023-02-16T09:21:16.819Z,8.55
2023-02-16T09:23:48.154Z,8.68
2023-02-16T09:26:16.625Z,7.45
2023-02-16T09:28:43.929Z,7.10
2023-02-16T09:31:25.386Z,7.43
2023-02-16T09:33:54.436Z,6.60
2023-02-16T09:36:21.250Z,7.13
2023-02-16T09:38:49.087Z,6.72
2023-02-16T09:41:40.973Z,6.28
2023-02-16T09:44:10.422Z,6.45
2023-02-16T09:46:38.889Z,6.50
2023-02-16T09:49:06.514Z,6.50
2023-02-16T09:51:39.036Z,6.13
2023-02-16T09:54:21.737Z,6.10
2023-02-16T09:56:56.686Z,6.38
2023-02-16T09:59:54.138Z,6.78
2023-02-16T10:02:59.463Z,6.70
2023-02-16T10:06:01.141Z,6.60
2023-02-16T10:08:40.987Z,6.82
2023-02-16T10:11:40.638Z,6.03
2023-02-16T10:14:24.424Z,6.05
2023-02-16T10:17:07.838Z,6.35
2023-02-16T10:20:05.245Z,6.20
2023-02-16T10:22:49.156Z,5.95
2023-02-16T10:25:24.102Z,5.97
2023-02-16T10:28:01.222Z,5.47
2023-02-16T10:30:31.514Z,6.10
2023-02-16T10:33:17.722Z,6.03
2023-02-16T10:35:51.374Z,5.80
2023-02-16T10:38:24.766Z,5.95
2023-02-16T10:41:03.956Z,5.53
2023-02-16T10:43:56.839Z,6.10
2023-02-16T10:46:26.575Z,5.30
2023-02-16T10:48:55.038Z,5.18
2023-02-16T10:51:28.179Z,5.13
2023-02-16T10:54:05.715Z,4.60
2023-02-16T10:56:46.141Z,5.78
2023-02-16T10:59:34.420Z,5.25
2023-02-16T11:02:04.221Z,4.60
2023-02-16T11:04:36.588Z,4.80
2023-02-16T11:07:05.307Z,4.88
2023-02-16T11:09:33.066Z,4.72
2023-02-16T11:12:00.805Z,4.80
2023-02-16T11:14:30.934Z,5.13
2023-02-16T11:17:13.766Z,4.28
2023-02-16T11:19:50.442Z,4.60
2023-02-16T11:22:41.439Z,5.03
2023-02-16T11:25:27.434Z,4.93
2023-02-16T11:28:00.228Z,5.20
2023-02-16T11:30:37.702Z,5.03
2023-02-16T11:33:31.724Z,5.25
2023-02-16T11:35:58.547Z,4.70
2023-02-16T11:38:28.374Z,4.80
2023-02-16T11:40:56.084Z,5.03
2023-02-16T11:43:31.099Z,4.50
2023-02-16T11:46:21.300Z,4.43
2023-02-16T11:48:48.767Z,4.25
2023-02-16T11:51:28.421Z,5.00
2023-02-16T11:54:05.008Z,4.57
2023-02-16T11:56:34.333Z,4.45
2023-02-16T11:59:21.686Z,4.10
2023-02-16T12:02:33.501Z,4.30
2023-02-16T12:05:35.071Z,4.10
2023-02-16T12:08:13.897Z,3.95
2023-02-16T12:11:01.302Z,4.00
2023-02-16T12:14:25.009Z,4.00
2023-02-16T12:17:13.126Z,3.80
2023-02-16T12:19:46.632Z,3.45
2023-02-16T12:22:34.557Z,2.25
2023-02-16T12:25:36.814Z,2.97
2023-02-16T12:28:40.149Z,3.00
2023-02-16T12:31:22.696Z,3.38
2023-02-16T12:34:07.432Z,3.53
2023-02-16T12:37:02.077Z,3.72
2023-02-16T12:39:39.433Z,3.55
2023-02-16T12:42:15.329Z,3.45
2023-02-16T12:45:06.561Z,3.30
2023-02-16T12:47:39.837Z,3.25
2023-02-16T12:50:24.232Z,3.30
2023-02-16T12:52:57.854Z,3.28
2023-02-16T12:55:33.591Z,2.72
2023-02-16T12:58:04.245Z,2.95
2023-02-16T13:00:47.719Z,3.10
2023-02-16T13:03:35.217Z,3.70
2023-02-16T13:06:20.062Z,3.88
2023-02-16T13:09:11.394Z,3.15
2023-02-16T13:11:49.761Z,3.25
2023-02-16T13:14:25.133Z,3.00
2023-02-16T13:17:19.289Z,2.70
2023-02-16T13:19:47.209Z,2.20
2023-02-16T13:22:29.673Z,2.20
2023-02-16T13:25:24.867Z,2.28
2023-02-16T13:28:34.952Z,2.42
2023-02-16T13:31:15.563Z,2.03
2023-02-16T13:34:11.991Z,1.90
2023-02-16T13:36:47.267Z,1.65
2023-02-16T13:39:56.253Z,2.10
2023-02-16T13:43:01.082Z,1.80
2023-02-16T13:45:32.189Z,2.15
2023-02-16T13:48:00.186Z,2.17
2023-02-16T13:50:33.666Z,1.80
2023-02-16T13:53:19.374Z,1.58
2023-02-16T13:55:47.152Z,2.08
2023-02-16T13:58:13.958Z,1.77
2023-02-16T14:00:48.476Z,2.15
2023-02-16T14:03:19.346Z,1.70
2023-02-16T14:05:53.901Z,1.75
2023-02-16T14:08:29.286Z,1.80
2023-02-16T14:11:00.738Z,1.70
2023-02-16T14:13:30.244Z,2.10
2023-02-16T14:16:01.350Z,1.85
2023-02-16T14:18:33.971Z,1.75
2023-02-16T14:21:06.674Z,1.98
2023-02-16T14:23:35.214Z,1.70
2023-02-16T14:26:07.850Z,1.95
2023-02-16T14:28:37.225Z,1.80
2023-02-16T14:31:14.846Z,2.03
2023-02-16T14:34:07.332Z,1.88
2023-02-16T14:36:34.288Z,1.90
2023-02-16T14:39:01.566Z,2.08
2023-02-16T14:41:35.186Z,2.20
2023-02-16T14:44:04.977Z,1.73
2023-02-16T14:46:47.058Z,1.70
2023-02-16T14:49:55.153Z,2.45
2023-02-16T14:52:40.197Z,1.90
2023-02-16T14:55:16.163Z,2.03
2023-02-16T14:57:58.506Z,1.58
2023-02-16T15:00:52.458Z,1.58
2023-02-16T15:03:25.589Z,2.20
2023-02-16T15:08:34.803Z,2.83
2023-02-16T15:11:19.982Z,2.30
2023-02-16T15:13:51.743Z,2.42
2023-02-16T15:16:20.653Z,2.10
2023-02-16T15:18:54.015Z,3.10
2023-02-16T15:21:26.797Z,1.92
2023-02-16T15:23:56.004Z,2.10
2023-02-16T15:26:30.846Z,2.38
2023-02-16T15:29:00.379Z,2.53
2023-02-16T15:31:45.532Z,1.85
2023-02-16T15:34:14.982Z,2.17
2023-02-16T15:36:44.692Z,2.08
2023-02-16T15:39:40.891Z,2.08
2023-02-16T15:42:22.419Z,2.28
2023-02-16T15:44:49.417Z,2.58
2023-02-16T15:47:25.160Z,2.38
2023-02-16T15:49:53.991Z,2.10
2023-02-16T15:52:32.484Z,2.42
2023-02-16T15:55:01.867Z,2.40
2023-02-16T15:57:38.490Z,2.70
2023-02-16T16:00:19.498Z,2.95
2023-02-16T16:02:58.384Z,2.38
2023-02-16T16:05:29.155Z,2.20
2023-02-16T16:07:57.310Z,2.80
2023-02-16T16:10:32.500Z,3.00
2023-02-16T16:13:26.672Z,2.17
2023-02-16T16:15:59.685Z,2.30
2023-02-16T16:18:41.112Z,2.13
2023-02-16T16:21:34.009Z,2.40
2023-02-16T16:24:05.445Z,2.10
2023-02-16T16:26:52.395Z,2.10
2023-02-16T16:29:41.404Z,2.15
2023-02-16T16:32:28.581Z,3.20
2023-02-16T16:34:55.432Z,3.10
2023-02-16T16:37:27.936Z,2.88
2023-02-16T16:40:08.289Z,2.40
2023-02-16T16:42:39.312Z,2.65
2023-02-16T16:45:34.098Z,2.50
2023-02-16T16:48:06.805Z,2.90
2023-02-16T16:50:38.383Z,2.92
2023-02-16T16:53:27.970Z,2.75
2023-02-16T16:55:56.802Z,3.08
2023-02-16T16:58:25.109Z,2.88
2023-02-16T17:01:08.867Z,2.63
2023-02-16T17:03:51.716Z,2.03
2023-02-16T17:06:25.118Z,2.67
2023-02-16T17:09:12.166Z,2.83
2023-02-16T17:11:46.471Z,3.58
2023-02-16T17:14:16.893Z,3.17
2023-02-16T17:16:46.108Z,2.40
2023-02-16T17:19:15.394Z,3.10
2023-02-16T17:21:43.750Z,2.60
2023-02-16T17:24:11.848Z,2.35
2023-02-16T17:26:38.659Z,2.80
2023-02-16T17:29:10.208Z,2.88
2023-02-16T17:31:37.030Z,2.85
2023-02-16T17:34:04.526Z,2.90
2023-02-16T17:36:33.481Z,3.25
2023-02-16T17:39:00.211Z,2.90
2023-02-16T17:41:29.610Z,3.10
2023-02-16T17:43:57.328Z,2.80
2023-02-16T17:46:25.491Z,3.05
2023-02-16T17:48:55.049Z,2.92
2023-02-16T17:51:23.814Z,3.03
2023-02-16T17:53:50.898Z,3.50
2023-02-16T17:56:21.213Z,3.30
2023-02-16T17:58:48.040Z,3.78
2023-02-16T18:01:16.884Z,3.90
2023-02-16T18:03:43.756Z,3.60
2023-02-16T18:06:17.520Z,3.75
2023-02-16T18:08:47.313Z,3.08
2023-02-16T18:11:14.412Z,3.63
2023-02-16T18:13:41.166Z,3.47
2023-02-16T18:16:10.534Z,3.75
2023-02-16T18:18:39.340Z,3.78
2023-02-16T18:21:06.505Z,5.10
2023-02-16T18:23:33.850Z,6.22
2023-02-16T18:26:00.851Z,5.63
2023-02-16T18:28:36.013Z,4.88
2023-02-16T18:31:06.284Z,4.43
2023-02-16T18:33:34.677Z,4.13
2023-02-16T18:36:02.157Z,3.70
2023-02-16T18:38:28.988Z,3.83
2023-02-16T18:40:55.953Z,3.97
2023-02-16T18:43:23.833Z,3.67
2023-02-16T18:45:50.996Z,3.95
2023-02-16T18:48:17.884Z,3.55
2023-02-16T18:50:47.068Z,3.50
2023-02-16T18:53:14.273Z,3.20
2023-02-16T18:55:43.422Z,3.35
2023-02-16T18:58:13.454Z,3.38
2023-02-16T19:00:40.792Z,3.45
2023-02-16T19:03:07.690Z,3.47
2023-02-16T19:05:34.896Z,3.20
2023-02-16T19:08:01.645Z,3.47
2023-02-16T19:10:28.572Z,3.50
2023-02-16T19:12:56.026Z,3.83
2023-02-16T19:15:22.986Z,3.00
2023-02-16T19:17:53.174Z,3.28
2023-02-16T19:20:20.566Z,2.85
2023-02-16T19:22:48.761Z,3.30
2023-02-16T19:25:16.177Z,3.20
2023-02-16T19:27:43.653Z,3.75
2023-02-16T19:30:11.400Z,3.70
2023-02-16T19:32:40.950Z,6.38
2023-02-16T19:35:11.769Z,4.15
2023-02-16T19:37:41.048Z,3.83
2023-02-16T19:40:10.246Z,3.05
2023-02-16T19:42:38.552Z,3.70
2023-02-16T19:45:05.956Z,3.10
2023-02-16T19:47:32.953Z,3.50
2023-02-16T19:49:59.662Z,3.78
2023-02-16T19:52:26.470Z,3.40
2023-02-16T19:54:53.314Z,3.60
2023-02-16T19:57:20.905Z,3.60
2023-02-16T19:59:47.847Z,3.35
2023-02-16T20:02:15.614Z,3.03
2023-02-16T20:04:44.326Z,3.33
2023-02-16T20:07:11.155Z,3.22
2023-02-16T20:09:41.055Z,3.33
2023-02-16T20:12:08.254Z,3.33
2023-02-16T20:14:40.387Z,3.10
2023-02-16T20:17:07.153Z,3.00
2023-02-16T20:19:38.133Z,3.00
2023-02-16T20:22:04.897Z,2.70
2023-02-16T20:25:08.533Z,2.80
2023-02-16T20:28:25.853Z,3.03
2023-02-16T20:31:11.053Z,2.50
2023-02-16T20:41:50.964Z,3.45
2023-02-16T20:44:20.137Z,3.08
2023-02-16T20:55:19.271Z,3.42
2023-02-16T20:57:46.002Z,3.20
2023-02-16T21:00:22.656Z,2.97
2023-02-16T21:02:53.315Z,2.90
2023-02-16T21:05:23.167Z,3.53
2023-02-16T21:07:53.357Z,2.83
2023-02-16T21:10:25.688Z,3.33
2023-02-16T21:15:51.589Z,3.28
2023-02-16T21:18:30.040Z,2.95
2023-02-16T21:21:15.203Z,2.90
2023-02-16T21:23:43.671Z,2.90
2023-02-16T21:26:13.618Z,2.97
2023-02-16T21:28:41.926Z,3.40
2023-02-16T21:31:12.196Z,3.42
2023-02-16T21:33:39.194Z,2.97
2023-02-16T21:36:08.751Z,3.22
2023-02-16T21:38:36.325Z,3.08
2023-02-16T21:41:24.840Z,2.95
2023-02-16T21:44:07.810Z,3.10
2023-02-16T21:46:39.000Z,3.13
2023-02-16T21:49:09.253Z,3.00
2023-02-16T21:51:39.474Z,4.13
2023-02-16T21:54:16.054Z,2.70
2023-02-16T21:56:59.197Z,3.10
2023-02-16T21:59:25.980Z,2.80
2023-02-16T22:01:54.965Z,3.05
2023-02-16T22:04:22.779Z,3.22
2023-02-16T22:06:51.157Z,3.47
2023-02-16T22:09:21.800Z,3.10
2023-02-16T22:11:49.447Z,3.55
2023-02-16T22:14:16.279Z,3.40
2023-02-16T22:16:45.402Z,3.13
2023-02-16T22:19:13.794Z,3.08
2023-02-16T22:21:42.418Z,2.72
2023-02-16T22:24:12.423Z,2.58
2023-02-16T22:26:39.195Z,2.97
2023-02-16T22:29:08.044Z,2.83
2023-02-16T22:31:35.669Z,2.67
2023-02-16T22:34:07.870Z,3.08
2023-02-16T22:36:35.694Z,3.08
2023-02-16T22:39:02.604Z,3.15
2023-02-16T22:41:29.284Z,2.88
2023-02-16T22:43:57.227Z,2.80
2023-02-16T22:46:24.578Z,3.03
2023-02-16T22:48:52.086Z,3.30
2023-02-16T22:51:20.050Z,2.72
2023-02-16T22:53:47.058Z,3.00
2023-02-16T22:56:16.553Z,3.03
2023-02-16T22:58:44.007Z,3.17
2023-02-16T23:01:12.802Z,2.88
2023-02-16T23:03:39.891Z,2.70
2023-02-16T23:06:14.593Z,2.88
2023-02-16T23:08:42.244Z,2.90
2023-02-16T23:11:08.998Z,3.20
2023-02-16T23:13:35.874Z,2.92
2023-02-16T23:16:05.484Z,2.95
2023-02-16T23:18:32.489Z,2.72
2023-02-16T23:21:20.478Z,3.05
2023-02-16T23:23:48.799Z,2.97
2023-02-16T23:26:16.627Z,3.30
2023-02-16T23:28:44.266Z,3.42
2023-02-16T23:31:12.673Z,3.50
2023-02-16T23:33:39.757Z,3.90
2023-02-16T23:36:07.125Z,3.60
2023-02-16T23:38:34.032Z,3.22
2023-02-16T23:41:06.974Z,3.35
2023-02-16T23:43:33.755Z,3.28
2023-02-16T23:46:01.553Z,3.33
2023-02-16T23:48:29.142Z,3.35
2023-02-16T23:50:56.044Z,3.17
2023-02-16T23:53:24.373Z,3.40
2023-02-16T23:56:03.141Z,3.00
2023-02-16T23:58:32.762Z,3.03
